createdAt,value
2023-11-30T00:01:26.415Z,93.21
2023-11-30T00:03:57.863Z,92.89
2023-11-30T00:06:29.288Z,93.42
2023-11-30T00:08:58.607Z,93.05
2023-11-30T00:11:27.592Z,92.79
2023-11-30T00:14:01.721Z,92.79
2023-11-30T00:16:28.332Z,93.10
2023-11-30T00:18:57.212Z,92.85
2023-11-30T00:21:23.836Z,92.68
2023-11-30T00:23:50.456Z,92.93
2023-11-30T00:26:17.039Z,93.02
2023-11-30T00:28:45.875Z,92.94
2023-11-30T00:31:14.723Z,93.28
2023-11-30T00:33:41.323Z,93.20
2023-11-30T00:36:11.243Z,92.92
2023-11-30T00:38:37.772Z,92.99
2023-11-30T00:41:06.564Z,93.10
2023-11-30T00:43:33.118Z,92.80
2023-11-30T00:46:06.810Z,92.87
2023-11-30T00:48:36.406Z,93.22
2023-11-30T00:51:03.609Z,92.90
2023-11-30T00:53:32.710Z,93.03
2023-11-30T00:56:01.677Z,93.06
2023-11-30T00:58:29.857Z,93.16
2023-11-30T01:00:59.673Z,93.00
2023-11-30T01:03:26.371Z,93.55
2023-11-30T01:05:52.945Z,92.85
2023-11-30T01:08:21.959Z,92.64
2023-11-30T01:10:51.026Z,93.30
2023-11-30T01:13:17.617Z,92.97
2023-11-30T01:15:44.287Z,93.46
2023-11-30T01:18:11.510Z,93.06
2023-11-30T01:20:38.116Z,93.11
2023-11-30T01:23:05.665Z,92.75
2023-11-30T01:25:35.472Z,93.10
2023-11-30T01:28:02.018Z,93.31
2023-11-30T01:30:28.560Z,93.35
2023-11-30T01:32:55.279Z,93.15
2023-11-30T01:35:21.955Z,93.33
2023-11-30T01:37:48.465Z,93.24
2023-11-30T01:40:19.894Z,93.00
2023-11-30T01:42:46.390Z,92.87
2023-11-30T01:45:15.687Z,93.45
2023-11-30T01:47:44.543Z,93.58
2023-11-30T01:50:11.720Z,92.99
2023-11-30T01:52:38.633Z,93.23
2023-11-30T01:55:06.170Z,93.26
2023-11-30T01:57:32.858Z,93.46
2023-11-30T02:00:01.974Z,93.37
2023-11-30T02:02:29.884Z,93.33
2023-11-30T02:04:56.399Z,93.40
2023-11-30T02:07:25.266Z,93.43
2023-11-30T02:09:51.868Z,93.59
2023-11-30T02:12:20.916Z,93.56
2023-11-30T02:14:50.060Z,93.27
2023-11-30T02:17:16.989Z,92.95
2023-11-30T02:19:43.646Z,93.04
2023-11-30T02:22:12.465Z,93.70
2023-11-30T02:24:39.001Z,93.46
2023-11-30T02:27:05.699Z,93.55
2023-11-30T02:29:32.269Z,93.76
2023-11-30T02:32:01.183Z,93.76
2023-11-30T02:34:30.193Z,93.68
2023-11-30T02:36:56.795Z,93.69
2023-11-30T02:39:23.354Z,93.80
2023-11-30T02:41:54.953Z,93.28
2023-11-30T02:44:21.522Z,93.17
2023-11-30T02:46:50.492Z,93.20
2023-11-30T02:49:17.925Z,93.56
2023-11-30T02:51:46.794Z,93.48
2023-11-30T02:54:13.445Z,93.63
2023-11-30T02:56:41.299Z,93.29
2023-11-30T02:59:07.816Z,93.49
2023-11-30T03:01:34.509Z,93.91
2023-11-30T03:04:03.450Z,93.53
2023-11-30T03:06:35.234Z,93.28
2023-11-30T03:09:01.882Z,93.82
2023-11-30T03:11:28.436Z,93.74
2023-11-30T03:13:54.975Z,93.60
2023-11-30T03:16:28.692Z,94.03
2023-11-30T03:19:10.188Z,93.13
2023-11-30T03:21:44.988Z,93.29
2023-11-30T03:24:12.331Z,93.55
2023-11-30T03:26:38.947Z,93.75
2023-11-30T03:29:08.023Z,93.29
2023-11-30T03:31:40.360Z,93.84
2023-11-30T03:34:09.973Z,93.47
2023-11-30T03:36:36.742Z,93.35
2023-11-30T03:39:03.868Z,93.48
2023-11-30T03:41:32.773Z,93.57
2023-11-30T03:43:59.387Z,93.85
2023-11-30T03:46:26.121Z,93.87
2023-11-30T03:48:56.005Z,93.89
2023-11-30T03:51:22.932Z,93.67
2023-11-30T03:53:49.530Z,93.97
2023-11-30T03:56:20.950Z,93.68
2023-11-30T03:58:49.936Z,93.71
2023-11-30T04:01:23.957Z,93.30
2023-11-30T04:03:53.164Z,93.20
2023-11-30T04:06:25.438Z,93.58
2023-11-30T04:08:53.232Z,93.40
2023-11-30T04:11:22.352Z,93.42
2023-11-30T04:13:49.172Z,94.07
2023-11-30T04:16:18.982Z,93.49
2023-11-30T04:18:48.114Z,93.64
2023-11-30T04:21:17.118Z,93.76
2023-11-30T04:23:43.663Z,93.41
2023-11-30T04:26:11.046Z,93.50
2023-11-30T04:28:40.157Z,93.71
2023-11-30T04:31:07.447Z,93.60
2023-11-30T04:33:34.365Z,93.39
2023-11-30T04:36:00.945Z,93.48
2023-11-30T04:38:30.643Z,93.95
2023-11-30T04:40:57.282Z,93.63
2023-11-30T04:43:26.882Z,93.49
2023-11-30T04:45:54.055Z,93.30
2023-11-30T04:48:20.967Z,93.52
2023-11-30T04:50:50.053Z,93.23
2023-11-30T04:53:16.620Z,93.38
2023-11-30T04:55:48.052Z,93.04
2023-11-30T04:58:15.255Z,94.03
2023-11-30T05:00:43.258Z,93.62
2023-11-30T05:03:10.054Z,93.47
2023-11-30T05:05:39.013Z,93.45
2023-11-30T05:08:05.528Z,93.80
2023-11-30T05:10:34.658Z,93.62
2023-11-30T05:13:01.392Z,93.22
2023-11-30T05:15:31.166Z,93.33
2023-11-30T05:17:57.831Z,93.57
2023-11-30T05:20:24.348Z,93.41
2023-11-30T05:22:50.926Z,93.85
2023-11-30T05:25:17.666Z,93.20
2023-11-30T05:27:44.216Z,93.73
2023-11-30T05:30:11.049Z,93.72
2023-11-30T05:32:40.204Z,93.40
2023-11-30T05:35:09.532Z,93.59
2023-11-30T05:37:36.125Z,93.64
2023-11-30T05:40:02.686Z,93.43
2023-11-30T05:42:29.442Z,93.25
2023-11-30T05:44:56.192Z,93.26
2023-11-30T05:47:24.241Z,93.20
2023-11-30T05:49:51.627Z,93.39
2023-11-30T05:52:18.264Z,93.50
2023-11-30T05:54:44.778Z,93.14
2023-11-30T05:57:11.391Z,92.94
2023-11-30T05:59:40.347Z,93.06
2023-11-30T06:02:12.172Z,93.48
2023-11-30T06:04:39.853Z,93.39
2023-11-30T06:07:06.729Z,93.12
2023-11-30T06:09:33.222Z,92.89
2023-11-30T06:12:02.585Z,93.32
2023-11-30T06:14:31.478Z,93.11
2023-11-30T06:16:58.361Z,93.57
2023-11-30T06:19:25.374Z,93.01
2023-11-30T06:21:51.941Z,93.04
2023-11-30T06:24:20.532Z,93.32
2023-11-30T06:26:47.022Z,93.04
2023-11-30T06:29:17.117Z,92.92
2023-11-30T06:31:43.628Z,92.98
2023-11-30T06:34:15.093Z,92.98
2023-11-30T06:36:41.698Z,93.12
2023-11-30T06:39:10.553Z,93.21
2023-11-30T06:41:39.637Z,93.16
2023-11-30T06:44:08.429Z,93.43
2023-11-30T06:46:36.596Z,92.95
2023-11-30T06:49:05.672Z,93.00
2023-11-30T06:51:37.595Z,93.35
2023-11-30T06:54:04.531Z,93.07
2023-11-30T06:56:31.683Z,92.99
2023-11-30T06:58:59.127Z,93.28
2023-11-30T07:01:30.813Z,93.44
2023-11-30T07:03:59.953Z,93.39
2023-11-30T07:06:26.986Z,93.20
2023-11-30T07:08:58.521Z,92.91
2023-11-30T07:11:27.400Z,92.82
2023-11-30T07:13:54.580Z,93.06
2023-11-30T07:16:21.233Z,93.31
2023-11-30T07:18:50.980Z,93.06
2023-11-30T07:21:17.685Z,93.04
2023-11-30T07:23:44.684Z,93.02
2023-11-30T07:26:15.358Z,93.47
2023-11-30T07:28:43.073Z,93.49
2023-11-30T07:31:18.498Z,93.22
2023-11-30T07:33:45.146Z,93.64
2023-11-30T07:36:15.424Z,93.03
2023-11-30T07:38:42.003Z,93.38
2023-11-30T07:41:09.292Z,93.31
2023-11-30T07:43:36.574Z,93.20
2023-11-30T07:46:05.413Z,93.23
2023-11-30T07:48:34.025Z,93.61
2023-11-30T07:51:00.711Z,93.72
2023-11-30T07:53:27.367Z,93.90
2023-11-30T07:55:58.523Z,93.42
2023-11-30T07:58:27.504Z,93.57
2023-11-30T08:00:54.446Z,93.47
2023-11-30T08:03:23.872Z,93.62
2023-11-30T08:05:50.409Z,93.43
2023-11-30T08:08:20.283Z,93.73
2023-11-30T08:10:49.228Z,93.57
2023-11-30T08:13:18.741Z,93.42
2023-11-30T08:15:45.616Z,93.42
2023-11-30T08:18:15.450Z,93.69
2023-11-30T08:20:44.070Z,93.67
2023-11-30T08:23:13.236Z,93.63
2023-11-30T08:25:40.143Z,93.38
2023-11-30T08:28:09.598Z,93.65
2023-11-30T08:30:37.363Z,93.41
2023-11-30T08:33:07.038Z,93.26
2023-11-30T08:35:36.282Z,93.64
2023-11-30T08:38:02.940Z,93.43
2023-11-30T08:40:29.516Z,94.09
2023-11-30T08:42:56.048Z,93.73
2023-11-30T08:45:22.842Z,93.90
2023-11-30T08:47:49.484Z,93.25
2023-11-30T08:50:17.469Z,93.54
2023-11-30T08:52:48.889Z,93.56
2023-11-30T08:55:18.094Z,93.29
2023-11-30T08:57:49.934Z,94.03
2023-11-30T09:00:20.250Z,93.94
2023-11-30T09:02:47.228Z,94.01
2023-11-30T09:05:13.949Z,93.30
2023-11-30T09:07:43.562Z,94.02
2023-11-30T09:10:10.521Z,93.55
2023-11-30T09:12:37.598Z,93.93
2023-11-30T09:15:10.136Z,94.00
2023-11-30T09:17:37.201Z,93.97
2023-11-30T09:20:09.172Z,93.76
2023-11-30T09:22:36.340Z,93.94
2023-11-30T09:25:06.120Z,93.96
2023-11-30T09:27:33.346Z,94.08
2023-11-30T09:30:02.482Z,94.03
2023-11-30T09:32:29.092Z,93.54
2023-11-30T09:34:56.314Z,94.07
2023-11-30T09:37:22.886Z,93.70
2023-11-30T09:39:52.325Z,93.95
2023-11-30T09:42:19.819Z,93.94
2023-11-30T09:44:46.794Z,94.00
2023-11-30T09:47:18.138Z,93.79
2023-11-30T09:49:44.848Z,94.43
2023-11-30T09:52:11.878Z,93.72
2023-11-30T09:54:41.112Z,93.94
2023-11-30T09:57:11.001Z,93.78
2023-11-30T09:59:40.092Z,93.66
2023-11-30T10:02:10.818Z,94.04
2023-11-30T10:04:40.754Z,94.06
2023-11-30T10:07:08.585Z,93.88
2023-11-30T10:09:37.105Z,93.84
2023-11-30T10:12:05.014Z,93.56
2023-11-30T10:14:34.328Z,93.65
2023-11-30T10:17:03.953Z,93.59
2023-11-30T10:19:31.797Z,93.24
2023-11-30T10:22:01.434Z,93.27
2023-11-30T10:24:31.588Z,93.60
2023-11-30T10:27:09.832Z,93.25
2023-11-30T10:29:43.140Z,93.32
2023-11-30T10:32:16.518Z,92.96
2023-11-30T10:34:58.185Z,92.97
2023-11-30T10:37:27.704Z,92.76
2023-11-30T10:40:04.924Z,92.83
2023-11-30T10:42:34.400Z,93.07
2023-11-30T10:45:12.593Z,92.83
2023-11-30T10:47:42.627Z,92.78
2023-11-30T10:50:10.888Z,93.05
2023-11-30T10:52:37.611Z,92.53
2023-11-30T10:55:13.503Z,93.03
2023-11-30T10:57:47.733Z,92.58
2023-11-30T11:00:16.357Z,92.38
2023-11-30T11:02:48.577Z,92.39
2023-11-30T11:05:19.627Z,92.53
2023-11-30T11:07:55.546Z,92.65
2023-11-30T11:10:28.088Z,92.40
2023-11-30T11:13:00.237Z,92.10
2023-11-30T11:15:29.904Z,92.27
2023-11-30T11:18:05.116Z,92.30
2023-11-30T11:20:36.629Z,92.21
2023-11-30T11:23:14.920Z,92.03
2023-11-30T11:25:47.763Z,92.13
2023-11-30T11:28:18.574Z,92.08
2023-11-30T11:30:54.741Z,92.25
2023-11-30T11:33:26.304Z,92.26
2023-11-30T11:35:55.460Z,91.98
2023-11-30T11:38:22.135Z,91.66
2023-11-30T11:40:51.314Z,91.65
2023-11-30T11:43:20.497Z,91.77
2023-11-30T11:45:49.537Z,91.40
2023-11-30T11:48:18.494Z,91.45
2023-11-30T11:50:56.202Z,91.62
2023-11-30T11:53:23.474Z,91.19
2023-11-30T11:55:50.058Z,90.93
2023-11-30T11:58:16.734Z,91.34
2023-11-30T12:00:56.526Z,91.24
2023-11-30T12:03:24.170Z,91.24
2023-11-30T12:05:52.650Z,91.19
2023-11-30T12:08:36.325Z,91.06
2023-11-30T12:11:03.082Z,91.35
2023-11-30T12:13:30.564Z,91.26
2023-11-30T12:15:59.689Z,90.76
2023-11-30T12:18:26.835Z,90.67
2023-11-30T12:20:54.196Z,91.05
2023-11-30T12:23:20.781Z,90.67
2023-11-30T12:25:47.361Z,90.56
2023-11-30T12:28:17.347Z,89.65
2023-11-30T12:30:47.267Z,89.83
2023-11-30T12:33:15.665Z,90.12
2023-11-30T12:35:47.138Z,90.15
2023-11-30T12:38:17.224Z,90.23
2023-11-30T12:40:46.372Z,90.27
2023-11-30T12:43:13.003Z,90.14
2023-11-30T12:45:40.087Z,90.15
2023-11-30T12:48:06.809Z,90.28
2023-11-30T12:50:33.561Z,90.39
2023-11-30T12:53:00.267Z,90.62
2023-11-30T12:55:26.995Z,90.29
2023-11-30T12:57:57.175Z,90.62
2023-11-30T13:00:24.172Z,90.72
2023-11-30T13:02:51.047Z,90.39
2023-11-30T13:05:22.686Z,90.31
2023-11-30T13:07:51.109Z,90.45
2023-11-30T13:10:18.624Z,90.64
2023-11-30T13:12:48.929Z,90.62
2023-11-30T13:15:18.190Z,90.48
2023-11-30T13:17:47.057Z,90.65
2023-11-30T13:20:14.808Z,90.21
2023-11-30T13:22:44.483Z,90.60
2023-11-30T13:25:12.552Z,90.38
2023-11-30T13:27:39.147Z,90.64
2023-11-30T13:30:06.257Z,90.47
2023-11-30T13:32:37.431Z,90.83
2023-11-30T13:35:06.472Z,90.60
2023-11-30T13:37:38.046Z,90.43
2023-11-30T13:40:08.389Z,90.41
2023-11-30T13:42:34.997Z,90.62
2023-11-30T13:45:02.475Z,90.54
2023-11-30T13:47:31.545Z,90.64
2023-11-30T13:50:00.427Z,90.68
2023-11-30T13:52:28.629Z,90.58
2023-11-30T13:54:55.315Z,91.04
2023-11-30T13:57:21.870Z,90.52
2023-11-30T13:59:48.434Z,90.80
2023-11-30T14:02:15.052Z,90.02
2023-11-30T14:04:43.868Z,90.45
2023-11-30T14:07:13.592Z,90.12
2023-11-30T14:09:42.716Z,90.24
2023-11-30T14:12:11.957Z,90.45
2023-11-30T14:14:39.944Z,90.28
2023-11-30T14:17:06.589Z,90.52
2023-11-30T14:19:34.916Z,90.32
2023-11-30T14:22:04.344Z,90.29
2023-11-30T14:24:33.320Z,90.53
2023-11-30T14:27:02.540Z,90.85
2023-11-30T14:29:29.073Z,90.39
2023-11-30T14:31:55.708Z,90.71
2023-11-30T14:34:22.387Z,90.88
2023-11-30T14:36:49.073Z,90.29
2023-11-30T14:39:16.108Z,90.72
2023-11-30T14:41:42.853Z,90.72
2023-11-30T14:44:11.716Z,90.88
2023-11-30T14:46:38.367Z,90.86
2023-11-30T14:49:06.190Z,90.85
2023-11-30T14:51:32.806Z,90.61
2023-11-30T14:53:59.993Z,90.96
2023-11-30T14:56:26.637Z,90.69
2023-11-30T14:58:59.806Z,90.65
2023-11-30T15:01:26.494Z,91.25
2023-11-30T15:03:53.215Z,90.89
2023-11-30T15:06:19.890Z,90.97
2023-11-30T15:08:46.446Z,91.36
2023-11-30T15:11:13.052Z,90.88
2023-11-30T15:13:39.681Z,91.04
2023-11-30T15:16:06.686Z,90.80
2023-11-30T15:18:33.792Z,91.08
2023-11-30T15:21:03.359Z,91.25
2023-11-30T15:23:29.944Z,90.85
2023-11-30T15:25:56.914Z,91.37
2023-11-30T15:28:24.018Z,91.64
2023-11-30T15:30:55.414Z,90.89
2023-11-30T15:33:24.430Z,91.77
2023-11-30T15:35:51.124Z,91.62
2023-11-30T15:38:17.673Z,91.07
2023-11-30T15:40:44.223Z,91.20
2023-11-30T15:43:12.981Z,91.30
2023-11-30T15:45:39.632Z,91.60
2023-11-30T15:48:07.199Z,91.49
2023-11-30T15:50:33.974Z,91.41
2023-11-30T15:53:03.848Z,91.03
2023-11-30T15:55:30.491Z,91.31
2023-11-30T15:58:06.045Z,91.29
2023-11-30T16:00:35.906Z,91.41
2023-11-30T16:03:10.332Z,91.20
2023-11-30T16:05:37.660Z,91.01
2023-11-30T16:08:04.523Z,90.96
2023-11-30T16:10:33.374Z,91.05
2023-11-30T16:12:59.995Z,90.92
2023-11-30T16:15:27.383Z,91.12
2023-11-30T16:17:58.386Z,91.01
2023-11-30T16:20:25.562Z,90.75
2023-11-30T16:22:52.191Z,90.88
2023-11-30T16:25:18.838Z,91.14
2023-11-30T16:27:45.604Z,91.46
2023-11-30T16:30:16.008Z,91.39
2023-11-30T16:32:42.843Z,91.33
2023-11-30T16:35:09.637Z,90.98
2023-11-30T16:37:36.224Z,91.29
2023-11-30T16:40:05.887Z,91.41
2023-11-30T16:42:33.024Z,90.95
2023-11-30T16:45:02.728Z,91.41
2023-11-30T16:47:29.412Z,91.46
2023-11-30T16:49:58.646Z,91.57
2023-11-30T16:52:25.287Z,91.11
2023-11-30T16:54:51.980Z,91.05
2023-11-30T16:57:23.480Z,91.05
2023-11-30T16:59:52.427Z,91.15
2023-11-30T17:02:19.063Z,90.82
2023-11-30T17:04:45.689Z,91.16
2023-11-30T17:07:14.580Z,91.11
2023-11-30T17:09:47.674Z,90.90
2023-11-30T17:12:14.404Z,91.10
2023-11-30T17:14:43.587Z,90.94
2023-11-30T17:17:10.215Z,91.17
2023-11-30T17:19:39.179Z,91.03
2023-11-30T17:22:05.877Z,90.83
2023-11-30T17:24:34.542Z,90.88
2023-11-30T17:27:01.123Z,91.40
2023-11-30T17:29:27.697Z,91.50
2023-11-30T17:31:54.316Z,91.05
2023-11-30T17:34:23.290Z,91.03
2023-11-30T17:36:49.939Z,91.11
2023-11-30T17:39:18.781Z,90.72
2023-11-30T17:41:45.745Z,90.92
2023-11-30T17:44:14.890Z,91.26
2023-11-30T17:46:45.053Z,90.96
2023-11-30T17:49:12.444Z,91.08
2023-11-30T17:51:46.391Z,91.04
2023-11-30T17:54:12.939Z,91.54
2023-11-30T17:56:39.825Z,91.25
2023-11-30T17:59:06.452Z,91.40
2023-11-30T18:01:33.074Z,91.35
2023-11-30T18:03:59.695Z,90.97
2023-11-30T18:06:29.143Z,91.21
2023-11-30T18:08:55.987Z,91.27
2023-11-30T18:11:22.667Z,91.06
2023-11-30T18:13:49.479Z,91.75
2023-11-30T18:16:16.398Z,90.74
2023-11-30T18:18:45.786Z,91.33
2023-11-30T18:21:14.940Z,91.60
2023-11-30T18:23:41.638Z,91.60
2023-11-30T18:26:08.219Z,91.16
2023-11-30T18:28:34.824Z,91.65
2023-11-30T18:31:12.253Z,91.34
2023-11-30T18:33:49.402Z,91.54
2023-11-30T18:36:16.154Z,91.40
2023-11-30T18:38:51.360Z,91.10
2023-11-30T18:41:24.477Z,91.23
2023-11-30T18:43:53.561Z,91.19
2023-11-30T18:46:20.250Z,91.33
2023-11-30T18:48:47.054Z,91.61
2023-11-30T18:51:14.158Z,91.52
2023-11-30T18:53:43.062Z,91.73
2023-11-30T18:56:12.139Z,91.24
2023-11-30T18:58:39.675Z,91.13
2023-11-30T19:01:06.537Z,91.05
2023-11-30T19:03:33.251Z,91.28
2023-11-30T19:05:59.932Z,90.71
2023-11-30T19:08:26.713Z,90.90
2023-11-30T19:10:55.355Z,91.65
2023-11-30T19:13:21.887Z,91.10
2023-11-30T19:15:48.505Z,91.33
2023-11-30T19:18:19.768Z,91.16
2023-11-30T19:20:48.817Z,90.76
2023-11-30T19:23:17.786Z,90.80
2023-11-30T19:25:46.748Z,91.32
2023-11-30T19:28:13.363Z,91.20
2023-11-30T19:30:40.030Z,91.28
2023-11-30T19:33:06.733Z,91.05
2023-11-30T19:35:36.576Z,90.72
2023-11-30T19:38:03.168Z,91.49
2023-11-30T19:40:29.871Z,91.06
2023-11-30T19:42:58.914Z,91.00
2023-11-30T19:45:27.938Z,91.43
2023-11-30T19:47:55.136Z,91.31
2023-11-30T19:50:21.863Z,91.16
2023-11-30T19:52:48.776Z,91.30
2023-11-30T19:55:16.009Z,91.19
2023-11-30T19:57:45.315Z,91.42
2023-11-30T20:00:12.254Z,91.08
2023-11-30T20:02:39.031Z,91.20
2023-11-30T20:05:06.044Z,91.46
2023-11-30T20:07:35.021Z,91.23
2023-11-30T20:10:01.622Z,91.50
2023-11-30T20:12:29.079Z,91.42
2023-11-30T20:14:55.861Z,91.78
2023-11-30T20:17:22.452Z,91.38
2023-11-30T20:19:51.478Z,91.17
2023-11-30T20:22:21.216Z,91.43
2023-11-30T20:24:47.722Z,90.94
2023-11-30T20:27:14.340Z,91.12
2023-11-30T20:29:43.229Z,91.11
2023-11-30T20:32:12.307Z,91.02
2023-11-30T20:34:41.109Z,90.92
2023-11-30T20:37:07.814Z,90.87
2023-11-30T20:39:35.682Z,91.58
2023-11-30T20:42:04.137Z,91.10
2023-11-30T20:44:33.005Z,91.14
2023-11-30T20:47:00.527Z,91.01
2023-11-30T20:49:27.269Z,91.41
2023-11-30T20:51:54.018Z,91.13
2023-11-30T20:54:20.568Z,91.06
2023-11-30T20:56:48.650Z,91.54
2023-11-30T20:59:18.374Z,91.18
2023-11-30T21:01:45.270Z,91.16
2023-11-30T21:04:14.292Z,91.22
2023-11-30T21:06:40.947Z,91.27
2023-11-30T21:09:10.086Z,91.39
2023-11-30T21:11:41.752Z,91.58
2023-11-30T21:14:13.141Z,91.50
2023-11-30T21:16:39.772Z,91.59
2023-11-30T21:19:06.643Z,91.35
2023-11-30T21:21:38.071Z,91.61
2023-11-30T21:24:05.072Z,91.61
2023-11-30T21:26:31.749Z,91.95
2023-11-30T21:29:00.863Z,91.87
2023-11-30T21:31:30.044Z,92.19
2023-11-30T21:33:56.790Z,91.81
2023-11-30T21:36:25.851Z,92.08
2023-11-30T21:38:54.726Z,92.21
2023-11-30T21:41:21.541Z,91.80
2023-11-30T21:43:48.502Z,91.87
2023-11-30T21:46:18.010Z,92.15
2023-11-30T21:48:47.261Z,92.27
2023-11-30T21:51:13.880Z,92.28
2023-11-30T21:53:42.805Z,91.91
2023-11-30T21:56:12.816Z,92.27
2023-11-30T21:58:39.623Z,92.08
2023-11-30T22:01:06.900Z,92.54
2023-11-30T22:03:35.906Z,92.13
2023-11-30T22:06:04.912Z,92.07
2023-11-30T22:08:34.032Z,92.06
2023-11-30T22:11:00.568Z,92.52
2023-11-30T22:13:27.090Z,92.19
2023-11-30T22:15:59.814Z,92.27
2023-11-30T22:18:37.465Z,91.96
2023-11-30T22:21:04.626Z,92.19
2023-11-30T22:23:36.052Z,92.56
2023-11-30T22:26:05.248Z,92.21
2023-11-30T22:28:31.866Z,92.11
2023-11-30T22:30:59.746Z,92.37
2023-11-30T22:33:28.981Z,92.03
2023-11-30T22:35:55.655Z,92.17
2023-11-30T22:38:22.371Z,92.56
2023-11-30T22:40:53.772Z,92.16
2023-11-30T22:43:20.465Z,91.89
2023-11-30T22:45:47.048Z,92.36
2023-11-30T22:48:15.948Z,92.30
2023-11-30T22:50:42.612Z,92.49
2023-11-30T22:53:11.581Z,92.20
2023-11-30T22:55:39.883Z,92.24
2023-11-30T22:58:06.618Z,92.52
2023-11-30T23:00:35.678Z,92.06
2023-11-30T23:03:02.663Z,92.00
2023-11-30T23:05:29.381Z,91.90
2023-11-30T23:07:58.291Z,92.49
2023-11-30T23:10:24.822Z,92.58
2023-11-30T23:12:54.061Z,92.35
2023-11-30T23:15:20.629Z,92.24
2023-11-30T23:17:49.676Z,92.64
2023-11-30T23:20:16.338Z,92.38
2023-11-30T23:22:43.297Z,91.90
2023-11-30T23:25:10.402Z,92.20
2023-11-30T23:27:36.956Z,92.05
2023-11-30T23:30:05.996Z,91.81
2023-11-30T23:32:32.747Z,91.97
2023-11-30T23:34:59.420Z,92.17
2023-11-30T23:37:26.052Z,91.90
2023-11-30T23:39:55.093Z,91.71
2023-11-30T23:42:21.746Z,91.73
2023-11-30T23:44:48.701Z,92.01
2023-11-30T23:47:15.361Z,91.68
2023-11-30T23:49:42.214Z,91.65
2023-11-30T23:52:08.781Z,91.80
2023-11-30T23:54:37.807Z,91.43
2023-11-30T23:57:06.217Z,91.51
2023-11-30T23:59:35.123Z,91.33
